sensor_id;sensor_type;location;lat;lon;timestamp;temperature;humidity
62476;DHT22;50739;45.670;11.936;2022-07-30T00:02:46;23.81;72.27
62476;DHT22;50739;45.670;11.936;2022-07-30T00:07:52;23.82;72.81
62476;DHT22;50739;45.670;11.936;2022-07-30T00:12:55;23.71;75.29
62476;DHT22;50739;45.670;11.936;2022-07-30T00:17:58;23.45;75.20
62476;DHT22;50739;45.670;11.936;2022-07-30T00:23:03;23.33;75.84
62476;DHT22;50739;45.670;11.936;2022-07-30T00:28:05;23.56;74.95
62476;DHT22;50739;45.670;11.936;2022-07-30T00:33:07;23.50;75.61
62476;DHT22;50739;45.670;11.936;2022-07-30T00:38:11;23.39;75.42
62476;DHT22;50739;45.670;11.936;2022-07-30T00:43:14;23.34;75.51
62476;DHT22;50739;45.670;11.936;2022-07-30T00:48:17;23.24;76.16
62476;DHT22;50739;45.670;11.936;2022-07-30T00:53:22;23.38;75.83
62476;DHT22;50739;45.670;11.936;2022-07-30T00:58:24;23.40;76.11
62476;DHT22;50739;45.670;11.936;2022-07-30T01:03:27;23.27;75.94
62476;DHT22;50739;45.670;11.936;2022-07-30T01:08:31;23.38;75.44
62476;DHT22;50739;45.670;11.936;2022-07-30T01:13:33;23.46;75.27
62476;DHT22;50739;45.670;11.936;2022-07-30T01:18:36;23.36;75.22
62476;DHT22;50739;45.670;11.936;2022-07-30T01:24:05;23.33;75.18
62476;DHT22;50739;45.670;11.936;2022-07-30T01:29:21;23.24;75.43
62476;DHT22;50739;45.670;11.936;2022-07-30T01:34:26;23.13;76.48
62476;DHT22;50739;45.670;11.936;2022-07-30T01:39:29;23.11;76.22
62476;DHT22;50739;45.670;11.936;2022-07-30T01:44:34;23.16;75.61
62476;DHT22;50739;45.670;11.936;2022-07-30T01:49:37;23.12;74.36
62476;DHT22;50739;45.670;11.936;2022-07-30T01:54:43;23.09;73.67
62476;DHT22;50739;45.670;11.936;2022-07-30T01:59:49;23.13;73.97
62476;DHT22;50739;45.670;11.936;2022-07-30T02:04:53;23.19;73.17
62476;DHT22;50739;45.670;11.936;2022-07-30T02:10:00;23.29;72.63
62476;DHT22;50739;45.670;11.936;2022-07-30T02:15:13;23.34;72.44
62476;DHT22;50739;45.670;11.936;2022-07-30T02:20:17;23.26;72.88
62476;DHT22;50739;45.670;11.936;2022-07-30T02:25:20;23.13;73.53
62476;DHT22;50739;45.670;11.936;2022-07-30T02:30:24;23.11;74.06
62476;DHT22;50739;45.670;11.936;2022-07-30T02:35:29;23.05;74.25
62476;DHT22;50739;45.670;11.936;2022-07-30T02:40:32;22.88;75.02
62476;DHT22;50739;45.670;11.936;2022-07-30T02:45:36;22.74;75.03
62476;DHT22;50739;45.670;11.936;2022-07-30T02:50:38;22.84;74.91
62476;DHT22;50739;45.670;11.936;2022-07-30T02:55:41;22.87;74.80
62476;DHT22;50739;45.670;11.936;2022-07-30T03:00:46;22.94;74.70
62476;DHT22;50739;45.670;11.936;2022-07-30T03:05:50;23.13;74.09
62476;DHT22;50739;45.670;11.936;2022-07-30T03:10:54;23.02;74.47
62476;DHT22;50739;45.670;11.936;2022-07-30T03:16:00;22.99;74.72
62476;DHT22;50739;45.670;11.936;2022-07-30T03:21:05;23.08;74.62
62476;DHT22;50739;45.670;11.936;2022-07-30T03:26:10;22.95;75.12
62476;DHT22;50739;45.670;11.936;2022-07-30T03:31:15;22.79;75.97
62476;DHT22;50739;45.670;11.936;2022-07-30T03:36:18;22.74;76.13
62476;DHT22;50739;45.670;11.936;2022-07-30T03:41:20;22.99;75.31
62476;DHT22;50739;45.670;11.936;2022-07-30T03:46:26;23.05;74.91
62476;DHT22;50739;45.670;11.936;2022-07-30T03:51:29;22.84;76.08
62476;DHT22;50739;45.670;11.936;2022-07-30T03:56:32;22.81;76.21
62476;DHT22;50739;45.670;11.936;2022-07-30T04:01:37;22.65;76.98
62476;DHT22;50739;45.670;11.936;2022-07-30T04:06:40;22.60;77.15
62476;DHT22;50739;45.670;11.936;2022-07-30T04:11:42;22.69;76.76
62476;DHT22;50739;45.670;11.936;2022-07-30T04:16:49;22.71;76.29
62476;DHT22;50739;45.670;11.936;2022-07-30T04:21:53;22.91;75.40
62476;DHT22;50739;45.670;11.936;2022-07-30T04:26:57;22.90;74.97
62476;DHT22;50739;45.670;11.936;2022-07-30T04:32:02;22.71;76.07
62476;DHT22;50739;45.670;11.936;2022-07-30T04:37:04;22.94;74.72
62476;DHT22;50739;45.670;11.936;2022-07-30T04:42:06;22.78;74.17
62476;DHT22;50739;45.670;11.936;2022-07-30T04:47:10;22.79;73.61
62476;DHT22;50739;45.670;11.936;2022-07-30T04:52:13;22.75;73.93
62476;DHT22;50739;45.670;11.936;2022-07-30T04:57:17;22.78;73.81
62476;DHT22;50739;45.670;11.936;2022-07-30T05:02:22;23.06;72.73
62476;DHT22;50739;45.670;11.936;2022-07-30T05:07:26;23.01;72.58
62476;DHT22;50739;45.670;11.936;2022-07-30T05:12:33;23.13;71.98
62476;DHT22;50739;45.670;11.936;2022-07-30T05:17:39;23.15;72.59
62476;DHT22;50739;45.670;11.936;2022-07-30T05:22:46;23.13;72.54
62476;DHT22;50739;45.670;11.936;2022-07-30T05:27:50;23.23;71.78
62476;DHT22;50739;45.670;11.936;2022-07-30T05:32:55;23.18;72.21
62476;DHT22;50739;45.670;11.936;2022-07-30T05:37:58;23.22;72.74
62476;DHT22;50739;45.670;11.936;2022-07-30T05:43:00;23.34;72.54
62476;DHT22;50739;45.670;11.936;2022-07-30T05:48:04;23.42;72.28
62476;DHT22;50739;45.670;11.936;2022-07-30T05:53:06;23.45;72.57
62476;DHT22;50739;45.670;11.936;2022-07-30T05:58:08;23.64;72.62
62476;DHT22;50739;45.670;11.936;2022-07-30T06:03:12;23.70;72.72
62476;DHT22;50739;45.670;11.936;2022-07-30T06:08:14;23.77;72.63
62476;DHT22;50739;45.670;11.936;2022-07-30T06:13:16;23.81;72.27
62476;DHT22;50739;45.670;11.936;2022-07-30T06:18:21;23.89;71.96
62476;DHT22;50739;45.670;11.936;2022-07-30T06:23:23;24.16;71.17
62476;DHT22;50739;45.670;11.936;2022-07-30T06:28:25;24.30;70.31
62476;DHT22;50739;45.670;11.936;2022-07-30T06:33:28;24.42;70.86
62476;DHT22;50739;45.670;11.936;2022-07-30T06:38:30;24.52;70.68
62476;DHT22;50739;45.670;11.936;2022-07-30T06:43:32;24.64;69.22
62476;DHT22;50739;45.670;11.936;2022-07-30T06:48:36;24.70;71.18
62476;DHT22;50739;45.670;11.936;2022-07-30T06:53:38;24.88;70.69
62476;DHT22;50739;45.670;11.936;2022-07-30T06:58:40;25.03;69.40
62476;DHT22;50739;45.670;11.936;2022-07-30T07:03:44;25.12;69.22
62476;DHT22;50739;45.670;11.936;2022-07-30T07:08:46;25.36;69.12
62476;DHT22;50739;45.670;11.936;2022-07-30T07:13:48;25.50;69.01
62476;DHT22;50739;45.670;11.936;2022-07-30T07:18:51;25.58;68.54
62476;DHT22;50739;45.670;11.936;2022-07-30T07:23:53;25.73;67.98
62476;DHT22;50739;45.670;11.936;2022-07-30T07:28:55;25.81;67.36
62476;DHT22;50739;45.670;11.936;2022-07-30T07:33:58;25.87;66.84
62476;DHT22;50739;45.670;11.936;2022-07-30T07:39:00;25.98;67.39
62476;DHT22;50739;45.670;11.936;2022-07-30T07:44:02;26.13;67.02
62476;DHT22;50739;45.670;11.936;2022-07-30T07:49:06;26.24;65.88
62476;DHT22;50739;45.670;11.936;2022-07-30T07:54:08;26.28;66.07
62476;DHT22;50739;45.670;11.936;2022-07-30T07:59:10;26.52;65.27
62476;DHT22;50739;45.670;11.936;2022-07-30T08:04:13;26.28;66.27
62476;DHT22;50739;45.670;11.936;2022-07-30T08:09:15;26.25;65.78
62476;DHT22;50739;45.670;11.936;2022-07-30T08:14:17;26.57;64.50
62476;DHT22;50739;45.670;11.936;2022-07-30T08:19:20;26.84;63.09
62476;DHT22;50739;45.670;11.936;2022-07-30T08:24:22;26.87;63.40
62476;DHT22;50739;45.670;11.936;2022-07-30T08:29:24;27.08;63.30
62476;DHT22;50739;45.670;11.936;2022-07-30T08:34:27;27.00;63.00
62476;DHT22;50739;45.670;11.936;2022-07-30T08:39:30;27.27;62.22
62476;DHT22;50739;45.670;11.936;2022-07-30T08:44:32;27.54;60.90
62476;DHT22;50739;45.670;11.936;2022-07-30T08:49:37;27.57;61.32
62476;DHT22;50739;45.670;11.936;2022-07-30T08:54:40;27.52;61.61
62476;DHT22;50739;45.670;11.936;2022-07-30T08:59:43;27.72;59.25
62476;DHT22;50739;45.670;11.936;2022-07-30T09:04:46;27.89;58.84
62476;DHT22;50739;45.670;11.936;2022-07-30T09:09:48;27.78;58.28
62476;DHT22;50739;45.670;11.936;2022-07-30T09:15:00;27.82;58.83
62476;DHT22;50739;45.670;11.936;2022-07-30T09:20:06;27.38;60.22
62476;DHT22;50739;45.670;11.936;2022-07-30T09:25:08;27.57;57.91
62476;DHT22;50739;45.670;11.936;2022-07-30T09:30:11;27.93;57.90
62476;DHT22;50739;45.670;11.936;2022-07-30T09:35:15;27.86;55.80
62476;DHT22;50739;45.670;11.936;2022-07-30T09:40:17;28.23;57.40
62476;DHT22;50739;45.670;11.936;2022-07-30T09:45:19;28.61;54.77
62476;DHT22;50739;45.670;11.936;2022-07-30T09:50:23;28.68;52.31
62476;DHT22;50739;45.670;11.936;2022-07-30T09:55:31;28.48;54.15
62476;DHT22;50739;45.670;11.936;2022-07-30T10:00:35;28.57;53.47
62476;DHT22;50739;45.670;11.936;2022-07-30T10:05:38;28.98;52.00
62476;DHT22;50739;45.670;11.936;2022-07-30T10:10:49;29.12;51.24
62476;DHT22;50739;45.670;11.936;2022-07-30T10:15:51;28.85;51.38
62476;DHT22;50739;45.670;11.936;2022-07-30T10:20:55;29.06;51.56
62476;DHT22;50739;45.670;11.936;2022-07-30T10:25:58;29.49;50.21
62476;DHT22;50739;45.670;11.936;2022-07-30T10:36:12;29.53;50.27
62476;DHT22;50739;45.670;11.936;2022-07-30T11:27:53;30.54;47.19
62476;DHT22;50739;45.670;11.936;2022-07-30T11:33:06;30.65;47.38
62476;DHT22;50739;45.670;11.936;2022-07-30T11:38:18;29.99;48.64
62476;DHT22;50739;45.670;11.936;2022-07-30T11:43:23;30.10;47.39
62476;DHT22;50739;45.670;11.936;2022-07-30T11:48:25;30.71;47.01
62476;DHT22;50739;45.670;11.936;2022-07-30T11:53:27;30.80;45.17
62476;DHT22;50739;45.670;11.936;2022-07-30T11:58:32;31.12;44.89
62476;DHT22;50739;45.670;11.936;2022-07-30T12:03:39;31.67;44.05
62476;DHT22;50739;45.670;11.936;2022-07-30T12:08:42;31.72;43.65
62476;DHT22;50739;45.670;11.936;2022-07-30T12:13:54;32.28;42.43
62476;DHT22;50739;45.670;11.936;2022-07-30T12:19:05;31.63;42.55
62476;DHT22;50739;45.670;11.936;2022-07-30T12:24:07;32.00;41.94
62476;DHT22;50739;45.670;11.936;2022-07-30T12:29:10;32.27;40.46
62476;DHT22;50739;45.670;11.936;2022-07-30T12:34:20;32.21;40.38
62476;DHT22;50739;45.670;11.936;2022-07-30T12:39:24;32.73;40.49
62476;DHT22;50739;45.670;11.936;2022-07-30T12:44:50;32.97;41.46
62476;DHT22;50739;45.670;11.936;2022-07-30T12:55:04;33.73;39.03
62476;DHT22;50739;45.670;11.936;2022-07-30T13:11:15;35.17;37.14
62476;DHT22;50739;45.670;11.936;2022-07-30T13:16:19;34.19;38.88
62476;DHT22;50739;45.670;11.936;2022-07-30T13:21:21;33.66;39.05
62476;DHT22;50739;45.670;11.936;2022-07-30T13:26:26;33.58;39.37
62476;DHT22;50739;45.670;11.936;2022-07-30T13:31:28;33.32;39.63
62476;DHT22;50739;45.670;11.936;2022-07-30T13:36:30;33.76;40.27
62476;DHT22;50739;45.670;11.936;2022-07-30T13:41:34;34.44;38.97
62476;DHT22;50739;45.670;11.936;2022-07-30T13:46:36;33.65;38.29
62476;DHT22;50739;45.670;11.936;2022-07-30T13:51:38;32.82;40.58
62476;DHT22;50739;45.670;11.936;2022-07-30T13:56:42;33.27;40.45
62476;DHT22;50739;45.670;11.936;2022-07-30T14:01:44;33.24;39.26
62476;DHT22;50739;45.670;11.936;2022-07-30T14:06:46;34.54;38.29
62476;DHT22;50739;45.670;11.936;2022-07-30T14:11:49;33.52;38.12
62476;DHT22;50739;45.670;11.936;2022-07-30T14:16:51;32.75;39.49
62476;DHT22;50739;45.670;11.936;2022-07-30T14:21:53;32.56;39.43
62476;DHT22;50739;45.670;11.936;2022-07-30T14:26:57;32.62;39.79
62476;DHT22;50739;45.670;11.936;2022-07-30T14:31:59;33.34;38.55
62476;DHT22;50739;45.670;11.936;2022-07-30T14:37:01;32.58;38.94
62476;DHT22;50739;45.670;11.936;2022-07-30T14:42:04;32.12;40.07
62476;DHT22;50739;45.670;11.936;2022-07-30T14:47:06;32.00;39.37
62476;DHT22;50739;45.670;11.936;2022-07-30T14:52:08;32.40;38.47
62476;DHT22;50739;45.670;11.936;2022-07-30T14:57:12;32.24;38.19
62476;DHT22;50739;45.670;11.936;2022-07-30T15:02:13;33.66;35.73
62476;DHT22;50739;45.670;11.936;2022-07-30T15:07:16;32.58;36.38
62476;DHT22;50739;45.670;11.936;2022-07-30T15:12:19;33.41;35.49
62476;DHT22;50739;45.670;11.936;2022-07-30T15:17:21;35.12;34.39
62476;DHT22;50739;45.670;11.936;2022-07-30T15:22:23;34.12;35.53
62476;DHT22;50739;45.670;11.936;2022-07-30T15:27:26;32.83;37.95
62476;DHT22;50739;45.670;11.936;2022-07-30T15:32:28;33.25;37.61
62476;DHT22;50739;45.670;11.936;2022-07-30T15:37:30;32.66;39.02
62476;DHT22;50739;45.670;11.936;2022-07-30T15:42:33;32.20;39.83
62476;DHT22;50739;45.670;11.936;2022-07-30T15:47:35;31.67;41.30
62476;DHT22;50739;45.670;11.936;2022-07-30T15:52:37;31.69;40.76
62476;DHT22;50739;45.670;11.936;2022-07-30T15:57:41;31.40;41.15
62476;DHT22;50739;45.670;11.936;2022-07-30T16:02:43;31.93;40.92
62476;DHT22;50739;45.670;11.936;2022-07-30T16:07:45;31.80;44.84
62476;DHT22;50739;45.670;11.936;2022-07-30T16:12:48;31.22;47.15
62476;DHT22;50739;45.670;11.936;2022-07-30T16:17:50;30.15;48.41
62476;DHT22;50739;45.670;11.936;2022-07-30T16:22:52;29.91;50.27
62476;DHT22;50739;45.670;11.936;2022-07-30T16:27:55;29.61;51.00
62476;DHT22;50739;45.670;11.936;2022-07-30T16:32:57;29.88;49.23
62476;DHT22;50739;45.670;11.936;2022-07-30T16:37:59;30.48;46.65
62476;DHT22;50739;45.670;11.936;2022-07-30T16:43:03;31.73;44.32
62476;DHT22;50739;45.670;11.936;2022-07-30T16:48:06;32.58;42.41
62476;DHT22;50739;45.670;11.936;2022-07-30T16:53:09;33.03;43.07
62476;DHT22;50739;45.670;11.936;2022-07-30T16:58:12;32.76;44.04
62476;DHT22;50739;45.670;11.936;2022-07-30T17:03:14;32.56;43.31
62476;DHT22;50739;45.670;11.936;2022-07-30T17:08:16;32.65;42.91
62476;DHT22;50739;45.670;11.936;2022-07-30T17:13:20;32.53;42.05
62476;DHT22;50739;45.670;11.936;2022-07-30T17:18:22;32.27;41.94
62476;DHT22;50739;45.670;11.936;2022-07-30T17:23:24;32.28;42.17
62476;DHT22;50739;45.670;11.936;2022-07-30T17:28:27;32.17;43.34
62476;DHT22;50739;45.670;11.936;2022-07-30T17:33:29;31.83;43.65
62476;DHT22;50739;45.670;11.936;2022-07-30T17:38:31;31.36;45.30
62476;DHT22;50739;45.670;11.936;2022-07-30T17:43:34;31.08;46.25
62476;DHT22;50739;45.670;11.936;2022-07-30T17:48:36;30.67;46.23
62476;DHT22;50739;45.670;11.936;2022-07-30T17:53:38;30.27;46.78
62476;DHT22;50739;45.670;11.936;2022-07-30T17:58:41;30.04;47.67
62476;DHT22;50739;45.670;11.936;2022-07-30T18:03:43;29.86;47.74
62476;DHT22;50739;45.670;11.936;2022-07-30T18:08:45;29.64;47.65
62476;DHT22;50739;45.670;11.936;2022-07-30T18:13:48;29.37;47.78
62476;DHT22;50739;45.670;11.936;2022-07-30T18:18:50;29.31;47.39
62476;DHT22;50739;45.670;11.936;2022-07-30T18:23:52;29.13;47.37
62476;DHT22;50739;45.670;11.936;2022-07-30T18:28:56;28.98;48.34
62476;DHT22;50739;45.670;11.936;2022-07-30T18:33:58;28.91;47.83
62476;DHT22;50739;45.670;11.936;2022-07-30T18:39:00;28.80;47.83
62476;DHT22;50739;45.670;11.936;2022-07-30T18:44:03;28.64;47.98
62476;DHT22;50739;45.670;11.936;2022-07-30T18:49:05;28.60;48.46
62476;DHT22;50739;45.670;11.936;2022-07-30T18:54:07;28.43;49.69
62476;DHT22;50739;45.670;11.936;2022-07-30T18:59:10;28.30;49.74
62476;DHT22;50739;45.670;11.936;2022-07-30T19:04:13;28.28;50.39
62476;DHT22;50739;45.670;11.936;2022-07-30T19:09:17;28.23;51.17
62476;DHT22;50739;45.670;11.936;2022-07-30T19:14:20;28.21;50.92
62476;DHT22;50739;45.670;11.936;2022-07-30T19:19:22;28.10;50.97
62476;DHT22;50739;45.670;11.936;2022-07-30T19:24:24;27.95;51.77
62476;DHT22;50739;45.670;11.936;2022-07-30T19:29:28;27.99;51.71
62476;DHT22;50739;45.670;11.936;2022-07-30T19:34:30;27.81;52.05
62476;DHT22;50739;45.670;11.936;2022-07-30T19:39:31;27.68;52.37
62476;DHT22;50739;45.670;11.936;2022-07-30T19:44:35;27.54;52.59
62476;DHT22;50739;45.670;11.936;2022-07-30T19:49:37;27.47;52.41
62476;DHT22;50739;45.670;11.936;2022-07-30T19:54:40;27.42;52.15
62476;DHT22;50739;45.670;11.936;2022-07-30T19:59:43;27.28;52.01
62476;DHT22;50739;45.670;11.936;2022-07-30T20:04:45;27.26;52.28
62476;DHT22;50739;45.670;11.936;2022-07-30T20:09:47;27.23;52.80
62476;DHT22;50739;45.670;11.936;2022-07-30T20:14:50;27.06;53.42
62476;DHT22;50739;45.670;11.936;2022-07-30T20:19:52;26.94;53.73
62476;DHT22;50739;45.670;11.936;2022-07-30T20:24:56;26.83;54.34
62476;DHT22;50739;45.670;11.936;2022-07-30T20:30:00;26.84;54.54
62476;DHT22;50739;45.670;11.936;2022-07-30T20:35:02;26.71;55.00
62476;DHT22;50739;45.670;11.936;2022-07-30T20:40:04;26.73;55.12
62476;DHT22;50739;45.670;11.936;2022-07-30T20:45:10;26.53;56.11
62476;DHT22;50739;45.670;11.936;2022-07-30T20:50:12;26.56;55.89
62476;DHT22;50739;45.670;11.936;2022-07-30T20:55:14;26.52;56.05
62476;DHT22;50739;45.670;11.936;2022-07-30T21:00:18;26.51;56.58
62476;DHT22;50739;45.670;11.936;2022-07-30T21:05:20;26.42;57.10
62476;DHT22;50739;45.670;11.936;2022-07-30T21:10:22;26.37;57.66
62476;DHT22;50739;45.670;11.936;2022-07-30T21:15:26;26.18;58.56
62476;DHT22;50739;45.670;11.936;2022-07-30T21:20:29;26.17;58.78
62476;DHT22;50739;45.670;11.936;2022-07-30T21:25:31;25.89;60.47
62476;DHT22;50739;45.670;11.936;2022-07-30T21:30:34;25.80;60.45
62476;DHT22;50739;45.670;11.936;2022-07-30T21:35:36;25.58;60.53
62476;DHT22;50739;45.670;11.936;2022-07-30T21:40:38;25.47;60.78
62476;DHT22;50739;45.670;11.936;2022-07-30T21:45:42;25.59;60.60
62476;DHT22;50739;45.670;11.936;2022-07-30T21:50:44;25.52;61.14
62476;DHT22;50739;45.670;11.936;2022-07-30T21:55:45;25.55;60.90
62476;DHT22;50739;45.670;11.936;2022-07-30T22:01:00;25.25;61.44
62476;DHT22;50739;45.670;11.936;2022-07-30T22:06:03;25.15;62.14
62476;DHT22;50739;45.670;11.936;2022-07-30T22:11:05;25.21;62.31
62476;DHT22;50739;45.670;11.936;2022-07-30T22:16:09;25.31;62.17
62476;DHT22;50739;45.670;11.936;2022-07-30T22:21:11;25.24;62.00
62476;DHT22;50739;45.670;11.936;2022-07-30T22:26:13;25.03;62.34
62476;DHT22;50739;45.670;11.936;2022-07-30T22:31:17;25.07;62.12
62476;DHT22;50739;45.670;11.936;2022-07-30T22:36:19;25.07;62.21
62476;DHT22;50739;45.670;11.936;2022-07-30T22:41:21;25.04;62.24
62476;DHT22;50739;45.670;11.936;2022-07-30T22:46:24;25.05;62.46
62476;DHT22;50739;45.670;11.936;2022-07-30T22:51:26;24.99;63.48
62476;DHT22;50739;45.670;11.936;2022-07-30T22:56:28;25.05;63.62
62476;DHT22;50739;45.670;11.936;2022-07-30T23:01:31;24.81;64.66
62476;DHT22;50739;45.670;11.936;2022-07-30T23:06:33;24.64;65.11
62476;DHT22;50739;45.670;11.936;2022-07-30T23:11:35;24.55;65.23
62476;DHT22;50739;45.670;11.936;2022-07-30T23:16:39;24.57;65.16
62476;DHT22;50739;45.670;11.936;2022-07-30T23:21:42;24.50;65.22
62476;DHT22;50739;45.670;11.936;2022-07-30T23:26:44;24.37;65.27
62476;DHT22;50739;45.670;11.936;2022-07-30T23:31:49;24.29;65.54
62476;DHT22;50739;45.670;11.936;2022-07-30T23:36:50;24.37;65.46
62476;DHT22;50739;45.670;11.936;2022-07-30T23:41:52;24.35;65.58
62476;DHT22;50739;45.670;11.936;2022-07-30T23:46:56;24.33;65.88
62476;DHT22;50739;45.670;11.936;2022-07-30T23:51:58;24.35;65.95
62476;DHT22;50739;45.670;11.936;2022-07-30T23:57:00;24.39;65.89
